sensor_id;sensor_type;location;lat;lon;timestamp;P1;durP1;ratioP1;P2;durP2;ratioP2
19782;SDS011;10051;40.294;-3.754;2023-03-23T00:02:28;1.52;;;1.05;;
19782;SDS011;10051;40.294;-3.754;2023-03-23T00:05:00;1.40;;;0.80;;
19782;SDS011;10051;40.294;-3.754;2023-03-23T00:07:28;1.42;;;0.93;;
19782;SDS011;10051;40.294;-3.754;2023-03-23T00:09:54;0.93;;;0.80;;
19782;SDS011;10051;40.294;-3.754;2023-03-23T00:12:24;1.85;;;1.00;;
19782;SDS011;10051;40.294;-3.754;2023-03-23T00:15:02;1.52;;;0.90;;
19782;SDS011;10051;40.294;-3.754;2023-03-23T00:17:29;1.42;;;0.88;;
19782;SDS011;10051;40.294;-3.754;2023-03-23T00:19:58;6.20;;;1.05;;
19782;SDS011;10051;40.294;-3.754;2023-03-23T00:22:26;1.15;;;0.88;;
19782;SDS011;10051;40.294;-3.754;2023-03-23T00:24:53;1.15;;;0.85;;
19782;SDS011;10051;40.294;-3.754;2023-03-23T00:27:21;4.95;;;0.90;;
19782;SDS011;10051;40.294;-3.754;2023-03-23T00:29:51;4.63;;;1.00;;
19782;SDS011;10051;40.294;-3.754;2023-03-23T00:32:21;1.25;;;0.80;;
19782;SDS011;10051;40.294;-3.754;2023-03-23T00:34:52;2.60;;;1.10;;
19782;SDS011;10051;40.294;-3.754;2023-03-23T00:37:18;1.83;;;1.00;;
19782;SDS011;10051;40.294;-3.754;2023-03-23T00:39:44;1.35;;;0.82;;
19782;SDS011;10051;40.294;-3.754;2023-03-23T00:42:12;2.75;;;0.90;;
19782;SDS011;10051;40.294;-3.754;2023-03-23T00:44:39;0.93;;;0.80;;
19782;SDS011;10051;40.294;-3.754;2023-03-23T00:47:05;1.20;;;0.82;;
19782;SDS011;10051;40.294;-3.754;2023-03-23T00:49:33;1.67;;;0.90;;
19782;SDS011;10051;40.294;-3.754;2023-03-23T00:52:00;1.67;;;0.80;;
19782;SDS011;10051;40.294;-3.754;2023-03-23T00:54:26;1.08;;;0.80;;
19782;SDS011;10051;40.294;-3.754;2023-03-23T00:56:52;2.92;;;1.00;;
19782;SDS011;10051;40.294;-3.754;2023-03-23T00:59:19;1.40;;;0.77;;
19782;SDS011;10051;40.294;-3.754;2023-03-23T01:01:45;1.08;;;0.80;;
19782;SDS011;10051;40.294;-3.754;2023-03-23T01:04:12;4.32;;;0.90;;
19782;SDS011;10051;40.294;-3.754;2023-03-23T01:06:38;1.73;;;0.82;;
19782;SDS011;10051;40.294;-3.754;2023-03-23T01:09:14;1.73;;;1.00;;
19782;SDS011;10051;40.294;-3.754;2023-03-23T01:11:42;1.50;;;0.90;;
19782;SDS011;10051;40.294;-3.754;2023-03-23T01:14:11;1.60;;;0.90;;
19782;SDS011;10051;40.294;-3.754;2023-03-23T01:16:38;2.47;;;1.00;;
19782;SDS011;10051;40.294;-3.754;2023-03-23T01:19:07;2.58;;;1.13;;
19782;SDS011;10051;40.294;-3.754;2023-03-23T01:21:32;1.48;;;1.00;;
19782;SDS011;10051;40.294;-3.754;2023-03-23T01:23:58;1.13;;;0.90;;
19782;SDS011;10051;40.294;-3.754;2023-03-23T01:26:26;1.30;;;0.98;;
19782;SDS011;10051;40.294;-3.754;2023-03-23T01:28:53;1.70;;;1.10;;
19782;SDS011;10051;40.294;-3.754;2023-03-23T01:31:20;1.20;;;0.90;;
19782;SDS011;10051;40.294;-3.754;2023-03-23T01:33:47;2.88;;;0.90;;
19782;SDS011;10051;40.294;-3.754;2023-03-23T01:36:25;3.15;;;1.00;;
19782;SDS011;10051;40.294;-3.754;2023-03-23T01:38:53;1.27;;;0.98;;
19782;SDS011;10051;40.294;-3.754;2023-03-23T01:41:21;5.53;;;1.00;;
19782;SDS011;10051;40.294;-3.754;2023-03-23T01:46:41;4.63;;;1.13;;
19782;SDS011;10051;40.294;-3.754;2023-03-23T01:49:13;2.20;;;1.27;;
19782;SDS011;10051;40.294;-3.754;2023-03-23T01:51:47;2.70;;;1.10;;
19782;SDS011;10051;40.294;-3.754;2023-03-23T01:54:18;1.98;;;1.00;;
19782;SDS011;10051;40.294;-3.754;2023-03-23T01:59:44;2.58;;;0.90;;
19782;SDS011;10051;40.294;-3.754;2023-03-23T02:02:12;3.38;;;0.90;;
19782;SDS011;10051;40.294;-3.754;2023-03-23T02:04:40;1.70;;;1.00;;
19782;SDS011;10051;40.294;-3.754;2023-03-23T02:07:07;3.83;;;0.93;;
19782;SDS011;10051;40.294;-3.754;2023-03-23T02:09:33;2.60;;;0.93;;
19782;SDS011;10051;40.294;-3.754;2023-03-23T02:11:59;2.53;;;1.10;;
19782;SDS011;10051;40.294;-3.754;2023-03-23T02:14:25;2.40;;;1.00;;
19782;SDS011;10051;40.294;-3.754;2023-03-23T02:17:08;3.03;;;1.08;;
19782;SDS011;10051;40.294;-3.754;2023-03-23T02:19:52;1.38;;;1.10;;
19782;SDS011;10051;40.294;-3.754;2023-03-23T02:22:44;1.83;;;1.00;;
19782;SDS011;10051;40.294;-3.754;2023-03-23T02:31:14;2.47;;;1.10;;
19782;SDS011;10051;40.294;-3.754;2023-03-23T02:34:12;3.10;;;1.20;;
19782;SDS011;10051;40.294;-3.754;2023-03-23T02:39:19;3.47;;;1.20;;
19782;SDS011;10051;40.294;-3.754;2023-03-23T02:42:11;1.70;;;1.00;;
19782;SDS011;10051;40.294;-3.754;2023-03-23T02:44:38;3.55;;;1.10;;
19782;SDS011;10051;40.294;-3.754;2023-03-23T02:47:09;3.28;;;1.10;;
19782;SDS011;10051;40.294;-3.754;2023-03-23T02:49:40;1.88;;;1.20;;
19782;SDS011;10051;40.294;-3.754;2023-03-23T02:52:14;2.83;;;1.20;;
19782;SDS011;10051;40.294;-3.754;2023-03-23T02:54:44;4.78;;;1.30;;
19782;SDS011;10051;40.294;-3.754;2023-03-23T02:57:13;2.40;;;1.25;;
19782;SDS011;10051;40.294;-3.754;2023-03-23T02:59:42;2.70;;;1.20;;
19782;SDS011;10051;40.294;-3.754;2023-03-23T03:02:14;5.03;;;1.30;;
19782;SDS011;10051;40.294;-3.754;2023-03-23T03:05:28;3.45;;;1.35;;
19782;SDS011;10051;40.294;-3.754;2023-03-23T03:10:50;2.53;;;1.40;;
19782;SDS011;10051;40.294;-3.754;2023-03-23T03:15:59;3.85;;;1.50;;
19782;SDS011;10051;40.294;-3.754;2023-03-23T03:18:54;5.20;;;1.40;;
19782;SDS011;10051;40.294;-3.754;2023-03-23T03:21:23;2.25;;;1.50;;
19782;SDS011;10051;40.294;-3.754;2023-03-23T03:23:52;3.20;;;1.40;;
19782;SDS011;10051;40.294;-3.754;2023-03-23T03:26:21;1.83;;;1.25;;
19782;SDS011;10051;40.294;-3.754;2023-03-23T03:28:51;2.30;;;1.40;;
19782;SDS011;10051;40.294;-3.754;2023-03-23T03:31:19;3.05;;;1.48;;
19782;SDS011;10051;40.294;-3.754;2023-03-23T03:33:49;3.60;;;1.48;;
19782;SDS011;10051;40.294;-3.754;2023-03-23T03:36:20;2.03;;;1.45;;
19782;SDS011;10051;40.294;-3.754;2023-03-23T03:38:50;1.65;;;1.30;;
19782;SDS011;10051;40.294;-3.754;2023-03-23T03:41:16;2.90;;;1.42;;
19782;SDS011;10051;40.294;-3.754;2023-03-23T03:43:43;3.03;;;1.38;;
19782;SDS011;10051;40.294;-3.754;2023-03-23T03:46:08;2.42;;;1.17;;
19782;SDS011;10051;40.294;-3.754;2023-03-23T03:48:34;2.92;;;1.25;;
19782;SDS011;10051;40.294;-3.754;2023-03-23T03:51:00;2.75;;;1.45;;
19782;SDS011;10051;40.294;-3.754;2023-03-23T03:53:26;3.33;;;1.30;;
19782;SDS011;10051;40.294;-3.754;2023-03-23T03:55:52;2.38;;;1.23;;
19782;SDS011;10051;40.294;-3.754;2023-03-23T03:58:21;1.73;;;1.20;;
19782;SDS011;10051;40.294;-3.754;2023-03-23T04:00:48;1.85;;;1.30;;
19782;SDS011;10051;40.294;-3.754;2023-03-23T04:03:14;1.90;;;1.30;;
19782;SDS011;10051;40.294;-3.754;2023-03-23T04:05:41;2.53;;;1.30;;
19782;SDS011;10051;40.294;-3.754;2023-03-23T04:08:09;2.15;;;1.48;;
19782;SDS011;10051;40.294;-3.754;2023-03-23T04:10:37;1.88;;;1.35;;
19782;SDS011;10051;40.294;-3.754;2023-03-23T04:13:03;2.80;;;1.23;;
19782;SDS011;10051;40.294;-3.754;2023-03-23T04:15:29;6.40;;;1.50;;
19782;SDS011;10051;40.294;-3.754;2023-03-23T04:17:56;4.35;;;1.48;;
19782;SDS011;10051;40.294;-3.754;2023-03-23T04:20:22;1.80;;;1.30;;
19782;SDS011;10051;40.294;-3.754;2023-03-23T04:22:50;2.50;;;1.52;;
19782;SDS011;10051;40.294;-3.754;2023-03-23T04:25:18;2.17;;;1.40;;
19782;SDS011;10051;40.294;-3.754;2023-03-23T04:27:46;2.92;;;1.38;;
19782;SDS011;10051;40.294;-3.754;2023-03-23T04:30:18;3.15;;;1.40;;
19782;SDS011;10051;40.294;-3.754;2023-03-23T04:32:48;2.55;;;1.30;;
19782;SDS011;10051;40.294;-3.754;2023-03-23T04:35:20;1.85;;;1.30;;
19782;SDS011;10051;40.294;-3.754;2023-03-23T04:37:47;3.20;;;1.30;;
19782;SDS011;10051;40.294;-3.754;2023-03-23T04:40:15;2.33;;;1.40;;
19782;SDS011;10051;40.294;-3.754;2023-03-23T04:42:42;3.55;;;1.30;;
19782;SDS011;10051;40.294;-3.754;2023-03-23T04:45:12;4.88;;;1.08;;
19782;SDS011;10051;40.294;-3.754;2023-03-23T04:47:40;1.95;;;1.23;;
19782;SDS011;10051;40.294;-3.754;2023-03-23T04:50:09;1.80;;;1.20;;
19782;SDS011;10051;40.294;-3.754;2023-03-23T04:52:38;3.25;;;1.33;;
19782;SDS011;10051;40.294;-3.754;2023-03-23T04:55:05;4.55;;;1.52;;
19782;SDS011;10051;40.294;-3.754;2023-03-23T04:57:33;2.13;;;1.30;;
19782;SDS011;10051;40.294;-3.754;2023-03-23T05:00:00;4.43;;;1.20;;
19782;SDS011;10051;40.294;-3.754;2023-03-23T05:02:29;1.50;;;1.20;;
19782;SDS011;10051;40.294;-3.754;2023-03-23T05:04:56;3.50;;;1.30;;
19782;SDS011;10051;40.294;-3.754;2023-03-23T05:07:23;3.88;;;1.30;;
19782;SDS011;10051;40.294;-3.754;2023-03-23T05:09:49;3.83;;;1.17;;
19782;SDS011;10051;40.294;-3.754;2023-03-23T05:12:15;2.80;;;1.33;;
19782;SDS011;10051;40.294;-3.754;2023-03-23T05:14:41;2.25;;;1.30;;
19782;SDS011;10051;40.294;-3.754;2023-03-23T05:17:07;2.85;;;1.00;;
19782;SDS011;10051;40.294;-3.754;2023-03-23T05:19:34;2.67;;;1.27;;
19782;SDS011;10051;40.294;-3.754;2023-03-23T05:22:01;2.80;;;1.20;;
19782;SDS011;10051;40.294;-3.754;2023-03-23T05:24:28;6.50;;;1.60;;
19782;SDS011;10051;40.294;-3.754;2023-03-23T05:27:00;2.85;;;1.35;;
19782;SDS011;10051;40.294;-3.754;2023-03-23T05:29:28;2.28;;;1.10;;
19782;SDS011;10051;40.294;-3.754;2023-03-23T05:31:56;4.10;;;1.60;;
19782;SDS011;10051;40.294;-3.754;2023-03-23T05:34:25;2.80;;;1.50;;
19782;SDS011;10051;40.294;-3.754;2023-03-23T05:36:51;3.97;;;1.40;;
19782;SDS011;10051;40.294;-3.754;2023-03-23T05:39:18;4.45;;;1.50;;
19782;SDS011;10051;40.294;-3.754;2023-03-23T05:41:44;3.45;;;1.42;;
19782;SDS011;10051;40.294;-3.754;2023-03-23T05:44:11;3.83;;;1.55;;
19782;SDS011;10051;40.294;-3.754;2023-03-23T05:46:38;5.20;;;1.58;;
19782;SDS011;10051;40.294;-3.754;2023-03-23T05:49:04;3.72;;;1.45;;
19782;SDS011;10051;40.294;-3.754;2023-03-23T05:51:30;2.47;;;1.50;;
19782;SDS011;10051;40.294;-3.754;2023-03-23T05:53:55;2.60;;;1.60;;
19782;SDS011;10051;40.294;-3.754;2023-03-23T05:56:21;3.08;;;1.75;;
19782;SDS011;10051;40.294;-3.754;2023-03-23T05:58:46;3.90;;;1.83;;
19782;SDS011;10051;40.294;-3.754;2023-03-23T06:01:12;3.35;;;1.70;;
19782;SDS011;10051;40.294;-3.754;2023-03-23T06:03:39;3.40;;;1.70;;
19782;SDS011;10051;40.294;-3.754;2023-03-23T06:06:05;6.97;;;3.08;;
19782;SDS011;10051;40.294;-3.754;2023-03-23T06:08:30;7.57;;;2.55;;
19782;SDS011;10051;40.294;-3.754;2023-03-23T06:10:56;9.52;;;2.15;;
19782;SDS011;10051;40.294;-3.754;2023-03-23T06:13:22;8.35;;;2.10;;
19782;SDS011;10051;40.294;-3.754;2023-03-23T06:15:48;6.00;;;1.80;;
19782;SDS011;10051;40.294;-3.754;2023-03-23T06:18:14;4.57;;;1.90;;
19782;SDS011;10051;40.294;-3.754;2023-03-23T06:20:40;5.00;;;2.00;;
19782;SDS011;10051;40.294;-3.754;2023-03-23T06:23:09;9.93;;;2.00;;
19782;SDS011;10051;40.294;-3.754;2023-03-23T06:25:34;3.55;;;1.73;;
19782;SDS011;10051;40.294;-3.754;2023-03-23T06:28:00;6.57;;;2.00;;
19782;SDS011;10051;40.294;-3.754;2023-03-23T06:30:26;5.70;;;1.60;;
19782;SDS011;10051;40.294;-3.754;2023-03-23T06:32:52;10.73;;;1.90;;
19782;SDS011;10051;40.294;-3.754;2023-03-23T06:35:18;3.97;;;2.00;;
19782;SDS011;10051;40.294;-3.754;2023-03-23T06:37:45;4.63;;;1.95;;
19782;SDS011;10051;40.294;-3.754;2023-03-23T06:40:11;4.30;;;2.25;;
19782;SDS011;10051;40.294;-3.754;2023-03-23T06:42:37;4.03;;;2.22;;
19782;SDS011;10051;40.294;-3.754;2023-03-23T06:45:04;5.45;;;2.42;;
19782;SDS011;10051;40.294;-3.754;2023-03-23T06:47:30;6.90;;;2.25;;
19782;SDS011;10051;40.294;-3.754;2023-03-23T06:49:56;6.25;;;2.10;;
19782;SDS011;10051;40.294;-3.754;2023-03-23T06:52:23;4.72;;;2.30;;
19782;SDS011;10051;40.294;-3.754;2023-03-23T06:54:50;10.05;;;2.30;;
19782;SDS011;10051;40.294;-3.754;2023-03-23T06:57:16;5.55;;;2.40;;
19782;SDS011;10051;40.294;-3.754;2023-03-23T06:59:43;4.40;;;2.42;;
19782;SDS011;10051;40.294;-3.754;2023-03-23T07:02:10;5.78;;;2.30;;
19782;SDS011;10051;40.294;-3.754;2023-03-23T07:04:40;10.35;;;2.85;;
19782;SDS011;10051;40.294;-3.754;2023-03-23T07:07:07;6.82;;;2.58;;
19782;SDS011;10051;40.294;-3.754;2023-03-23T07:09:34;6.05;;;2.42;;
19782;SDS011;10051;40.294;-3.754;2023-03-23T07:11:59;6.63;;;2.55;;
19782;SDS011;10051;40.294;-3.754;2023-03-23T07:14:25;14.40;;;3.10;;
19782;SDS011;10051;40.294;-3.754;2023-03-23T07:16:51;13.77;;;3.00;;
19782;SDS011;10051;40.294;-3.754;2023-03-23T07:19:18;8.10;;;2.63;;
19782;SDS011;10051;40.294;-3.754;2023-03-23T07:21:44;5.97;;;2.83;;
19782;SDS011;10051;40.294;-3.754;2023-03-23T07:24:10;9.35;;;2.95;;
19782;SDS011;10051;40.294;-3.754;2023-03-23T07:26:40;8.10;;;2.90;;
19782;SDS011;10051;40.294;-3.754;2023-03-23T07:29:09;6.97;;;2.67;;
19782;SDS011;10051;40.294;-3.754;2023-03-23T07:31:35;7.25;;;2.83;;
19782;SDS011;10051;40.294;-3.754;2023-03-23T07:34:01;10.63;;;3.03;;
19782;SDS011;10051;40.294;-3.754;2023-03-23T07:36:28;8.68;;;2.92;;
19782;SDS011;10051;40.294;-3.754;2023-03-23T07:38:54;7.95;;;2.67;;
19782;SDS011;10051;40.294;-3.754;2023-03-23T07:41:20;8.90;;;2.83;;
19782;SDS011;10051;40.294;-3.754;2023-03-23T07:43:46;12.75;;;3.00;;
19782;SDS011;10051;40.294;-3.754;2023-03-23T07:46:12;10.93;;;2.75;;
19782;SDS011;10051;40.294;-3.754;2023-03-23T07:48:38;7.00;;;2.60;;
19782;SDS011;10051;40.294;-3.754;2023-03-23T07:51:04;8.43;;;2.65;;
19782;SDS011;10051;40.294;-3.754;2023-03-23T07:53:32;8.88;;;2.67;;
19782;SDS011;10051;40.294;-3.754;2023-03-23T07:55:58;6.20;;;2.80;;
19782;SDS011;10051;40.294;-3.754;2023-03-23T07:58:24;7.47;;;2.80;;
19782;SDS011;10051;40.294;-3.754;2023-03-23T08:00:51;5.70;;;2.60;;
19782;SDS011;10051;40.294;-3.754;2023-03-23T08:03:17;8.27;;;2.80;;
19782;SDS011;10051;40.294;-3.754;2023-03-23T08:05:43;10.40;;;2.95;;
19782;SDS011;10051;40.294;-3.754;2023-03-23T08:08:09;11.13;;;3.15;;
19782;SDS011;10051;40.294;-3.754;2023-03-23T08:10:35;8.82;;;2.80;;
19782;SDS011;10051;40.294;-3.754;2023-03-23T08:13:01;13.70;;;2.75;;
19782;SDS011;10051;40.294;-3.754;2023-03-23T08:15:28;8.77;;;2.88;;
19782;SDS011;10051;40.294;-3.754;2023-03-23T08:17:54;6.72;;;2.70;;
19782;SDS011;10051;40.294;-3.754;2023-03-23T08:20:20;7.80;;;2.90;;
19782;SDS011;10051;40.294;-3.754;2023-03-23T08:22:54;6.75;;;2.40;;
19782;SDS011;10051;40.294;-3.754;2023-03-23T08:25:21;9.35;;;2.22;;
19782;SDS011;10051;40.294;-3.754;2023-03-23T08:27:47;5.93;;;2.25;;
19782;SDS011;10051;40.294;-3.754;2023-03-23T08:30:14;11.30;;;2.65;;
19782;SDS011;10051;40.294;-3.754;2023-03-23T08:32:42;10.48;;;2.47;;
19782;SDS011;10051;40.294;-3.754;2023-03-23T08:35:09;4.60;;;2.10;;
19782;SDS011;10051;40.294;-3.754;2023-03-23T08:37:36;10.73;;;2.00;;
19782;SDS011;10051;40.294;-3.754;2023-03-23T08:40:03;9.35;;;1.90;;
19782;SDS011;10051;40.294;-3.754;2023-03-23T08:42:36;7.15;;;1.77;;
19782;SDS011;10051;40.294;-3.754;2023-03-23T08:45:06;5.53;;;2.10;;
19782;SDS011;10051;40.294;-3.754;2023-03-23T08:47:34;4.68;;;1.58;;
19782;SDS011;10051;40.294;-3.754;2023-03-23T08:50:00;12.52;;;1.80;;
19782;SDS011;10051;40.294;-3.754;2023-03-23T08:52:27;6.68;;;1.48;;
19782;SDS011;10051;40.294;-3.754;2023-03-23T08:54:53;4.10;;;1.60;;
19782;SDS011;10051;40.294;-3.754;2023-03-23T08:57:19;2.58;;;1.48;;
19782;SDS011;10051;40.294;-3.754;2023-03-23T08:59:48;2.83;;;1.38;;
19782;SDS011;10051;40.294;-3.754;2023-03-23T09:02:13;10.20;;;1.92;;
19782;SDS011;10051;40.294;-3.754;2023-03-23T09:04:39;2.75;;;1.60;;
19782;SDS011;10051;40.294;-3.754;2023-03-23T09:07:08;4.82;;;1.63;;
19782;SDS011;10051;40.294;-3.754;2023-03-23T09:09:36;11.02;;;1.60;;
19782;SDS011;10051;40.294;-3.754;2023-03-23T09:12:02;7.07;;;1.50;;
19782;SDS011;10051;40.294;-3.754;2023-03-23T09:14:28;3.53;;;1.50;;
19782;SDS011;10051;40.294;-3.754;2023-03-23T09:16:54;3.33;;;1.80;;
19782;SDS011;10051;40.294;-3.754;2023-03-23T09:19:19;5.85;;;2.00;;
19782;SDS011;10051;40.294;-3.754;2023-03-23T09:21:45;4.95;;;1.90;;
19782;SDS011;10051;40.294;-3.754;2023-03-23T09:24:11;3.03;;;1.55;;
19782;SDS011;10051;40.294;-3.754;2023-03-23T09:26:36;3.30;;;1.70;;
19782;SDS011;10051;40.294;-3.754;2023-03-23T09:29:02;6.45;;;1.90;;
19782;SDS011;10051;40.294;-3.754;2023-03-23T09:31:28;4.65;;;1.52;;
19782;SDS011;10051;40.294;-3.754;2023-03-23T09:33:56;3.38;;;1.45;;
19782;SDS011;10051;40.294;-3.754;2023-03-23T09:36:24;4.45;;;1.58;;
19782;SDS011;10051;40.294;-3.754;2023-03-23T09:38:54;3.63;;;1.83;;
19782;SDS011;10051;40.294;-3.754;2023-03-23T09:44:19;5.72;;;1.60;;
19782;SDS011;10051;40.294;-3.754;2023-03-23T09:52:13;6.07;;;1.85;;
19782;SDS011;10051;40.294;-3.754;2023-03-23T10:03:52;3.53;;;1.90;;
19782;SDS011;10051;40.294;-3.754;2023-03-23T10:06:25;3.97;;;1.83;;
19782;SDS011;10051;40.294;-3.754;2023-03-23T10:08:55;2.88;;;1.65;;
19782;SDS011;10051;40.294;-3.754;2023-03-23T10:17:13;4.05;;;1.23;;
19782;SDS011;10051;40.294;-3.754;2023-03-23T10:22:49;7.88;;;1.20;;
19782;SDS011;10051;40.294;-3.754;2023-03-23T10:25:28;5.82;;;1.25;;
19782;SDS011;10051;40.294;-3.754;2023-03-23T10:28:13;4.85;;;1.33;;
19782;SDS011;10051;40.294;-3.754;2023-03-23T10:30:52;2.55;;;1.00;;
19782;SDS011;10051;40.294;-3.754;2023-03-23T10:33:37;1.80;;;1.10;;
19782;SDS011;10051;40.294;-3.754;2023-03-23T10:41:49;4.65;;;0.70;;
19782;SDS011;10051;40.294;-3.754;2023-03-23T10:44:38;2.92;;;1.00;;
19782;SDS011;10051;40.294;-3.754;2023-03-23T10:47:07;2.75;;;0.80;;
19782;SDS011;10051;40.294;-3.754;2023-03-23T10:49:41;2.03;;;1.00;;
19782;SDS011;10051;40.294;-3.754;2023-03-23T10:58:08;1.85;;;0.80;;
19782;SDS011;10051;40.294;-3.754;2023-03-23T11:00:47;2.40;;;1.00;;
19782;SDS011;10051;40.294;-3.754;2023-03-23T11:03:30;3.22;;;0.75;;
19782;SDS011;10051;40.294;-3.754;2023-03-23T11:06:21;2.33;;;0.75;;
19782;SDS011;10051;40.294;-3.754;2023-03-23T11:09:00;2.13;;;0.82;;
19782;SDS011;10051;40.294;-3.754;2023-03-23T11:11:51;5.65;;;1.10;;
19782;SDS011;10051;40.294;-3.754;2023-03-23T11:16:55;3.92;;;0.90;;
19782;SDS011;10051;40.294;-3.754;2023-03-23T11:19:29;1.60;;;0.80;;
19782;SDS011;10051;40.294;-3.754;2023-03-23T11:24:42;0.93;;;0.80;;
19782;SDS011;10051;40.294;-3.754;2023-03-23T11:27:10;2.88;;;0.90;;
19782;SDS011;10051;40.294;-3.754;2023-03-23T11:29:41;4.25;;;1.10;;
19782;SDS011;10051;40.294;-3.754;2023-03-23T11:32:14;2.03;;;0.70;;
19782;SDS011;10051;40.294;-3.754;2023-03-23T11:37:09;2.15;;;0.90;;
19782;SDS011;10051;40.294;-3.754;2023-03-23T11:58:47;3.05;;;1.20;;
19782;SDS011;10051;40.294;-3.754;2023-03-23T12:13:27;3.45;;;0.90;;
19782;SDS011;10051;40.294;-3.754;2023-03-23T12:18:01;3.50;;;0.75;;
19782;SDS011;10051;40.294;-3.754;2023-03-23T12:23:24;1.27;;;0.80;;
19782;SDS011;10051;40.294;-3.754;2023-03-23T12:26:38;3.97;;;0.98;;
19782;SDS011;10051;40.294;-3.754;2023-03-23T12:29:18;2.22;;;0.90;;
19782;SDS011;10051;40.294;-3.754;2023-03-23T12:40:44;1.50;;;0.88;;
19782;SDS011;10051;40.294;-3.754;2023-03-23T12:43:47;2.20;;;0.60;;
19782;SDS011;10051;40.294;-3.754;2023-03-23T12:49:18;3.65;;;0.80;;
19782;SDS011;10051;40.294;-3.754;2023-03-23T12:59:40;1.98;;;0.85;;
19782;SDS011;10051;40.294;-3.754;2023-03-23T13:10:45;5.55;;;0.80;;
19782;SDS011;10051;40.294;-3.754;2023-03-23T13:13:22;3.55;;;0.80;;
19782;SDS011;10051;40.294;-3.754;2023-03-23T13:16:07;3.78;;;0.80;;
19782;SDS011;10051;40.294;-3.754;2023-03-23T13:21:48;1.90;;;0.90;;
19782;SDS011;10051;40.294;-3.754;2023-03-23T13:24:22;4.00;;;0.90;;
19782;SDS011;10051;40.294;-3.754;2023-03-23T13:26:51;5.40;;;0.90;;
19782;SDS011;10051;40.294;-3.754;2023-03-23T13:29:21;1.17;;;0.75;;
19782;SDS011;10051;40.294;-3.754;2023-03-23T13:31:52;3.08;;;1.00;;
19782;SDS011;10051;40.294;-3.754;2023-03-23T13:34:30;1.40;;;0.80;;
19782;SDS011;10051;40.294;-3.754;2023-03-23T13:39:38;3.53;;;0.80;;
19782;SDS011;10051;40.294;-3.754;2023-03-23T14:03:39;2.67;;;0.90;;
19782;SDS011;10051;40.294;-3.754;2023-03-23T14:06:14;2.38;;;0.85;;
19782;SDS011;10051;40.294;-3.754;2023-03-23T14:08:42;3.28;;;0.98;;
19782;SDS011;10051;40.294;-3.754;2023-03-23T14:13:42;4.13;;;0.80;;
19782;SDS011;10051;40.294;-3.754;2023-03-23T14:16:23;5.75;;;1.00;;
19782;SDS011;10051;40.294;-3.754;2023-03-23T14:18:55;3.42;;;0.90;;
19782;SDS011;10051;40.294;-3.754;2023-03-23T14:21:42;1.10;;;0.63;;
19782;SDS011;10051;40.294;-3.754;2023-03-23T14:24:32;2.35;;;0.80;;
19782;SDS011;10051;40.294;-3.754;2023-03-23T14:27:11;3.15;;;0.80;;
19782;SDS011;10051;40.294;-3.754;2023-03-23T14:29:41;2.88;;;0.73;;
19782;SDS011;10051;40.294;-3.754;2023-03-23T14:32:09;1.63;;;0.80;;
19782;SDS011;10051;40.294;-3.754;2023-03-23T14:34:46;4.20;;;0.70;;
19782;SDS011;10051;40.294;-3.754;2023-03-23T14:37:13;3.70;;;0.77;;
19782;SDS011;10051;40.294;-3.754;2023-03-23T14:39:46;2.40;;;0.88;;
19782;SDS011;10051;40.294;-3.754;2023-03-23T14:42:15;3.67;;;0.80;;
19782;SDS011;10051;40.294;-3.754;2023-03-23T14:44:49;1.40;;;0.70;;
19782;SDS011;10051;40.294;-3.754;2023-03-23T14:47:25;1.58;;;0.60;;
19782;SDS011;10051;40.294;-3.754;2023-03-23T14:49:56;4.55;;;0.70;;
19782;SDS011;10051;40.294;-3.754;2023-03-23T14:52:27;1.10;;;0.70;;
19782;SDS011;10051;40.294;-3.754;2023-03-23T14:54:54;1.27;;;0.55;;
19782;SDS011;10051;40.294;-3.754;2023-03-23T14:59:49;1.75;;;0.70;;
19782;SDS011;10051;40.294;-3.754;2023-03-23T15:04:51;8.02;;;0.80;;
19782;SDS011;10051;40.294;-3.754;2023-03-23T15:07:21;1.83;;;0.60;;
19782;SDS011;10051;40.294;-3.754;2023-03-23T15:09:51;1.85;;;0.57;;
19782;SDS011;10051;40.294;-3.754;2023-03-23T15:12:20;2.60;;;0.60;;
19782;SDS011;10051;40.294;-3.754;2023-03-23T15:14:50;1.33;;;0.65;;
19782;SDS011;10051;40.294;-3.754;2023-03-23T15:17:19;1.23;;;0.80;;
19782;SDS011;10051;40.294;-3.754;2023-03-23T15:19:47;1.77;;;0.63;;
19782;SDS011;10051;40.294;-3.754;2023-03-23T15:22:19;1.02;;;0.60;;
19782;SDS011;10051;40.294;-3.754;2023-03-23T15:25:01;2.05;;;0.80;;
19782;SDS011;10051;40.294;-3.754;2023-03-23T15:27:38;1.15;;;0.60;;
19782;SDS011;10051;40.294;-3.754;2023-03-23T15:30:13;3.10;;;0.73;;
19782;SDS011;10051;40.294;-3.754;2023-03-23T15:32:40;2.47;;;1.08;;
19782;SDS011;10051;40.294;-3.754;2023-03-23T15:35:19;2.70;;;0.63;;
19782;SDS011;10051;40.294;-3.754;2023-03-23T15:37:58;2.70;;;0.70;;
19782;SDS011;10051;40.294;-3.754;2023-03-23T15:40:26;1.95;;;0.70;;
19782;SDS011;10051;40.294;-3.754;2023-03-23T15:46:04;1.40;;;0.77;;
19782;SDS011;10051;40.294;-3.754;2023-03-23T15:51:26;1.83;;;0.80;;
19782;SDS011;10051;40.294;-3.754;2023-03-23T15:53:54;1.83;;;0.70;;
19782;SDS011;10051;40.294;-3.754;2023-03-23T15:56:21;1.15;;;0.50;;
19782;SDS011;10051;40.294;-3.754;2023-03-23T15:58:47;2.22;;;0.93;;
19782;SDS011;10051;40.294;-3.754;2023-03-23T16:01:31;2.67;;;0.80;;
19782;SDS011;10051;40.294;-3.754;2023-03-23T16:06:37;1.13;;;0.70;;
19782;SDS011;10051;40.294;-3.754;2023-03-23T16:09:03;1.73;;;0.70;;
19782;SDS011;10051;40.294;-3.754;2023-03-23T16:11:31;1.55;;;0.60;;
19782;SDS011;10051;40.294;-3.754;2023-03-23T16:13:58;2.15;;;0.70;;
19782;SDS011;10051;40.294;-3.754;2023-03-23T16:16:27;1.95;;;0.77;;
19782;SDS011;10051;40.294;-3.754;2023-03-23T16:19:01;2.15;;;0.73;;
19782;SDS011;10051;40.294;-3.754;2023-03-23T16:21:26;1.02;;;0.70;;
19782;SDS011;10051;40.294;-3.754;2023-03-23T16:23:52;1.42;;;0.73;;
19782;SDS011;10051;40.294;-3.754;2023-03-23T16:26:18;0.82;;;0.70;;
19782;SDS011;10051;40.294;-3.754;2023-03-23T16:28:44;1.80;;;0.90;;
19782;SDS011;10051;40.294;-3.754;2023-03-23T16:31:10;3.75;;;0.80;;
19782;SDS011;10051;40.294;-3.754;2023-03-23T16:33:36;2.10;;;0.90;;
19782;SDS011;10051;40.294;-3.754;2023-03-23T16:36:01;2.85;;;0.90;;
19782;SDS011;10051;40.294;-3.754;2023-03-23T16:38:27;1.60;;;0.70;;
19782;SDS011;10051;40.294;-3.754;2023-03-23T16:40:53;2.80;;;0.80;;
19782;SDS011;10051;40.294;-3.754;2023-03-23T16:43:20;2.10;;;0.88;;
19782;SDS011;10051;40.294;-3.754;2023-03-23T16:45:45;2.38;;;0.75;;
19782;SDS011;10051;40.294;-3.754;2023-03-23T16:48:12;1.90;;;0.85;;
19782;SDS011;10051;40.294;-3.754;2023-03-23T16:50:40;2.85;;;1.00;;
19782;SDS011;10051;40.294;-3.754;2023-03-23T16:53:07;1.77;;;0.80;;
19782;SDS011;10051;40.294;-3.754;2023-03-23T16:55:33;3.15;;;0.80;;
19782;SDS011;10051;40.294;-3.754;2023-03-23T16:57:59;2.97;;;0.80;;
19782;SDS011;10051;40.294;-3.754;2023-03-23T17:00:25;1.38;;;0.80;;
19782;SDS011;10051;40.294;-3.754;2023-03-23T17:02:52;1.45;;;0.88;;
19782;SDS011;10051;40.294;-3.754;2023-03-23T17:05:22;2.45;;;0.80;;
19782;SDS011;10051;40.294;-3.754;2023-03-23T17:07:50;3.15;;;0.77;;
19782;SDS011;10051;40.294;-3.754;2023-03-23T17:10:15;3.95;;;0.80;;
19782;SDS011;10051;40.294;-3.754;2023-03-23T17:12:41;2.65;;;0.80;;
19782;SDS011;10051;40.294;-3.754;2023-03-23T17:15:07;2.08;;;0.70;;
19782;SDS011;10051;40.294;-3.754;2023-03-23T17:17:34;1.52;;;0.80;;
19782;SDS011;10051;40.294;-3.754;2023-03-23T17:20:00;1.15;;;0.60;;
19782;SDS011;10051;40.294;-3.754;2023-03-23T17:22:26;2.58;;;0.80;;
19782;SDS011;10051;40.294;-3.754;2023-03-23T17:24:52;3.25;;;0.80;;
19782;SDS011;10051;40.294;-3.754;2023-03-23T17:27:19;3.08;;;0.70;;
19782;SDS011;10051;40.294;-3.754;2023-03-23T17:29:46;4.57;;;0.80;;
19782;SDS011;10051;40.294;-3.754;2023-03-23T17:32:11;2.13;;;0.85;;
19782;SDS011;10051;40.294;-3.754;2023-03-23T17:34:38;2.17;;;0.80;;
19782;SDS011;10051;40.294;-3.754;2023-03-23T17:37:04;2.35;;;0.70;;
19782;SDS011;10051;40.294;-3.754;2023-03-23T17:39:30;4.88;;;1.00;;
19782;SDS011;10051;40.294;-3.754;2023-03-23T17:41:57;1.55;;;0.70;;